sensor_id;sensor_type;location;lat;lon;timestamp;pressure;altitude;pressure_sealevel;temperature;humidity
73692;BME280;61996;49.910;35.562;2023-04-01T00:01:56;98362.91;;;19.87;39.49
73692;BME280;61996;49.910;35.562;2023-04-01T00:05:00;98359.09;;;19.89;39.28
73692;BME280;61996;49.910;35.562;2023-04-01T00:08:03;98367.09;;;19.89;39.58
73692;BME280;61996;49.910;35.562;2023-04-01T00:11:08;98367.91;;;19.90;39.26
73692;BME280;61996;49.910;35.562;2023-04-01T00:14:11;98370.94;;;19.87;39.41
73692;BME280;61996;49.910;35.562;2023-04-01T00:17:13;98370.75;;;19.88;39.35
73692;BME280;61996;49.910;35.562;2023-04-01T00:20:19;98371.94;;;19.86;39.38
73692;BME280;61996;49.910;35.562;2023-04-01T00:23:27;98374.41;;;19.87;39.40
73692;BME280;61996;49.910;35.562;2023-04-01T00:26:30;98384.94;;;19.89;39.31
73692;BME280;61996;49.910;35.562;2023-04-01T00:29:33;98373.59;;;19.87;39.37
73692;BME280;61996;49.910;35.562;2023-04-01T00:32:39;98375.44;;;19.86;39.44
73692;BME280;61996;49.910;35.562;2023-04-01T00:35:45;98378.94;;;19.87;39.33
73692;BME280;61996;49.910;35.562;2023-04-01T00:38:49;98388.78;;;19.86;39.27
73692;BME280;61996;49.910;35.562;2023-04-01T00:41:53;98379.09;;;19.85;39.28
73692;BME280;61996;49.910;35.562;2023-04-01T00:44:56;98386.63;;;19.82;39.33
73692;BME280;61996;49.910;35.562;2023-04-01T00:47:59;98387.94;;;19.86;39.32
73692;BME280;61996;49.910;35.562;2023-04-01T00:51:08;98396.31;;;19.83;39.42
73692;BME280;61996;49.910;35.562;2023-04-01T00:54:12;98395.63;;;19.81;39.38
73692;BME280;61996;49.910;35.562;2023-04-01T00:57:19;98400.97;;;19.81;39.35
73692;BME280;61996;49.910;35.562;2023-04-01T01:00:22;98401.78;;;19.81;39.30
73692;BME280;61996;49.910;35.562;2023-04-01T01:03:25;98406.31;;;19.81;39.28
73692;BME280;61996;49.910;35.562;2023-04-01T01:06:37;98407.63;;;19.85;39.16
73692;BME280;61996;49.910;35.562;2023-04-01T01:09:45;98417.47;;;19.84;39.21
73692;BME280;61996;49.910;35.562;2023-04-01T01:12:53;98419.97;;;19.86;39.21
73692;BME280;61996;49.910;35.562;2023-04-01T01:16:02;98416.81;;;19.82;39.47
73692;BME280;61996;49.910;35.562;2023-04-01T01:19:09;98420.97;;;19.85;39.30
73692;BME280;61996;49.910;35.562;2023-04-01T01:22:23;98420.66;;;19.80;39.33
73692;BME280;61996;49.910;35.562;2023-04-01T01:25:39;98423.13;;;19.81;39.32
73692;BME280;61996;49.910;35.562;2023-04-01T01:28:47;98425.47;;;19.84;39.28
73692;BME280;61996;49.910;35.562;2023-04-01T01:31:56;98428.47;;;19.81;39.33
73692;BME280;61996;49.910;35.562;2023-04-01T01:35:14;98417.97;;;19.80;39.39
73692;BME280;61996;49.910;35.562;2023-04-01T01:38:19;98421.66;;;19.79;39.40
73692;BME280;61996;49.910;35.562;2023-04-01T01:41:23;98427.00;;;19.79;39.14
73692;BME280;61996;49.910;35.562;2023-04-01T01:44:28;98425.34;;;19.78;39.14
73692;BME280;61996;49.910;35.562;2023-04-01T01:47:32;98428.84;;;19.78;39.27
73692;BME280;61996;49.910;35.562;2023-04-01T01:50:38;98430.03;;;19.76;39.42
73692;BME280;61996;49.910;35.562;2023-04-01T01:53:41;98437.03;;;19.77;39.37
73692;BME280;61996;49.910;35.562;2023-04-01T01:56:49;98436.19;;;19.76;39.19
73692;BME280;61996;49.910;35.562;2023-04-01T01:59:56;98430.84;;;19.76;39.25
73692;BME280;61996;49.910;35.562;2023-04-01T02:03:01;98425.28;;;19.86;39.16
73692;BME280;61996;49.910;35.562;2023-04-01T02:06:06;98427.44;;;19.90;38.80
73692;BME280;61996;49.910;35.562;2023-04-01T02:09:11;98421.94;;;19.92;38.98
73692;BME280;61996;49.910;35.562;2023-04-01T02:12:14;98426.88;;;20.03;38.70
73692;BME280;61996;49.910;35.562;2023-04-01T02:15:18;98423.34;;;20.11;38.62
73692;BME280;61996;49.910;35.562;2023-04-01T02:18:22;98412.06;;;20.23;38.40
73692;BME280;61996;49.910;35.562;2023-04-01T02:21:27;98413.13;;;20.37;38.31
73692;BME280;61996;49.910;35.562;2023-04-01T02:24:33;98411.28;;;20.46;37.94
73692;BME280;61996;49.910;35.562;2023-04-01T02:27:38;98407.22;;;20.50;37.98
73692;BME280;61996;49.910;35.562;2023-04-01T02:30:43;98405.88;;;20.54;37.82
73692;BME280;61996;49.910;35.562;2023-04-01T02:33:47;98411.66;;;20.58;37.88
73692;BME280;61996;49.910;35.562;2023-04-01T02:36:51;98410.69;;;20.59;37.95
73692;BME280;61996;49.910;35.562;2023-04-01T02:39:58;98419.78;;;20.64;37.95
73692;BME280;61996;49.910;35.562;2023-04-01T02:43:02;98414.41;;;20.72;37.62
73692;BME280;61996;49.910;35.562;2023-04-01T02:46:06;98415.25;;;20.73;37.75
73692;BME280;61996;49.910;35.562;2023-04-01T02:49:10;98418.03;;;20.79;37.75
73692;BME280;61996;49.910;35.562;2023-04-01T02:52:14;98412.69;;;20.79;37.46
73692;BME280;61996;49.910;35.562;2023-04-01T02:55:23;98418.19;;;20.78;37.83
73692;BME280;61996;49.910;35.562;2023-04-01T02:58:26;98419.69;;;20.80;37.59
73692;BME280;61996;49.910;35.562;2023-04-01T03:01:29;98417.94;;;20.88;37.51
73692;BME280;61996;49.910;35.562;2023-04-01T03:04:32;98416.28;;;20.87;37.69
73692;BME280;61996;49.910;35.562;2023-04-01T03:07:36;98419.53;;;20.97;37.58
73692;BME280;61996;49.910;35.562;2023-04-01T03:10:39;98425.25;;;20.94;37.63
73692;BME280;61996;49.910;35.562;2023-04-01T03:13:44;98431.88;;;20.98;37.51
73692;BME280;61996;49.910;35.562;2023-04-01T03:16:47;98430.84;;;20.99;37.46
73692;BME280;61996;49.910;35.562;2023-04-01T03:19:51;98432.88;;;20.97;37.57
73692;BME280;61996;49.910;35.562;2023-04-01T03:22:55;98434.34;;;20.99;37.66
73692;BME280;61996;49.910;35.562;2023-04-01T03:25:58;98435.94;;;20.94;37.76
73692;BME280;61996;49.910;35.562;2023-04-01T03:29:01;98434.63;;;20.90;37.80
73692;BME280;61996;49.910;35.562;2023-04-01T03:32:04;98432.13;;;20.88;37.87
73692;BME280;61996;49.910;35.562;2023-04-01T03:35:07;98426.31;;;20.85;37.99
73692;BME280;61996;49.910;35.562;2023-04-01T03:38:12;98431.28;;;20.73;38.33
73692;BME280;61996;49.910;35.562;2023-04-01T03:41:16;98434.78;;;20.73;38.29
73692;BME280;61996;49.910;35.562;2023-04-01T03:44:19;98436.78;;;20.71;38.39
73692;BME280;61996;49.910;35.562;2023-04-01T03:47:21;98435.31;;;20.69;38.44
73692;BME280;61996;49.910;35.562;2023-04-01T03:50:24;98434.81;;;20.65;38.37
73692;BME280;61996;49.910;35.562;2023-04-01T03:53:29;98438.88;;;20.61;38.48
73692;BME280;61996;49.910;35.562;2023-04-01T03:56:31;98446.88;;;20.61;38.59
73692;BME280;61996;49.910;35.562;2023-04-01T03:59:37;98448.59;;;20.54;38.64
73692;BME280;61996;49.910;35.562;2023-04-01T04:02:40;98451.28;;;20.54;38.61
73692;BME280;61996;49.910;35.562;2023-04-01T04:05:46;98448.13;;;20.50;38.66
73692;BME280;61996;49.910;35.562;2023-04-01T04:08:53;98459.50;;;20.44;38.66
73692;BME280;61996;49.910;35.562;2023-04-01T04:11:56;98460.38;;;20.45;38.83
73692;BME280;61996;49.910;35.562;2023-04-01T04:14:59;98468.88;;;20.40;38.81
73692;BME280;61996;49.910;35.562;2023-04-01T04:18:01;98465.56;;;20.38;38.84
73692;BME280;61996;49.910;35.562;2023-04-01T04:21:04;98482.03;;;20.42;38.76
73692;BME280;61996;49.910;35.562;2023-04-01T04:24:09;98482.22;;;20.40;38.81
73692;BME280;61996;49.910;35.562;2023-04-01T04:27:14;98486.72;;;20.40;38.71
73692;BME280;61996;49.910;35.562;2023-04-01T04:30:17;98484.88;;;20.40;38.85
73692;BME280;61996;49.910;35.562;2023-04-01T04:33:20;98488.38;;;20.41;38.89
73692;BME280;61996;49.910;35.562;2023-04-01T04:36:23;98495.75;;;20.39;38.90
73692;BME280;61996;49.910;35.562;2023-04-01T04:39:27;98480.91;;;20.36;38.85
73692;BME280;61996;49.910;35.562;2023-04-01T04:42:30;98490.28;;;20.32;38.73
73692;BME280;61996;49.910;35.562;2023-04-01T04:45:35;98485.13;;;20.31;38.94
73692;BME280;61996;49.910;35.562;2023-04-01T04:48:37;98491.81;;;20.26;38.91
73692;BME280;61996;49.910;35.562;2023-04-01T04:51:40;98490.16;;;20.25;38.98
73692;BME280;61996;49.910;35.562;2023-04-01T04:54:44;98488.50;;;20.24;39.04
73692;BME280;61996;49.910;35.562;2023-04-01T04:57:48;98492.13;;;20.23;39.13
73692;BME280;61996;49.910;35.562;2023-04-01T05:00:51;98489.66;;;20.22;38.92
73692;BME280;61996;49.910;35.562;2023-04-01T05:03:54;98501.16;;;20.22;39.10
73692;BME280;61996;49.910;35.562;2023-04-01T05:06:57;98498.84;;;20.19;39.01
73692;BME280;61996;49.910;35.562;2023-04-01T05:10:02;98504.19;;;20.19;38.98
73692;BME280;61996;49.910;35.562;2023-04-01T05:13:06;98502.53;;;20.18;38.83
73692;BME280;61996;49.910;35.562;2023-04-01T05:16:11;98502.03;;;20.15;39.17
73692;BME280;61996;49.910;35.562;2023-04-01T05:19:16;98516.56;;;20.12;39.16
73692;BME280;61996;49.910;35.562;2023-04-01T05:22:20;98498.06;;;20.11;39.09
73692;BME280;61996;49.910;35.562;2023-04-01T05:25:25;98510.59;;;20.10;39.16
73692;BME280;61996;49.910;35.562;2023-04-01T05:28:28;98512.25;;;20.11;39.05
73692;BME280;61996;49.910;35.562;2023-04-01T05:31:33;98508.75;;;20.11;39.06
73692;BME280;61996;49.910;35.562;2023-04-01T05:34:36;98518.59;;;20.10;39.12
73692;BME280;61996;49.910;35.562;2023-04-01T05:37:39;98518.59;;;20.10;39.13
73692;BME280;61996;49.910;35.562;2023-04-01T05:40:45;98521.25;;;20.10;39.05
73692;BME280;61996;49.910;35.562;2023-04-01T05:43:48;98530.59;;;20.06;39.17
73692;BME280;61996;49.910;35.562;2023-04-01T05:46:51;98525.91;;;20.08;39.17
73692;BME280;61996;49.910;35.562;2023-04-01T05:49:54;98535.75;;;20.08;39.03
73692;BME280;61996;49.910;35.562;2023-04-01T05:52:57;98536.97;;;20.05;39.08
73692;BME280;61996;49.910;35.562;2023-04-01T05:56:03;98543.44;;;20.03;39.08
73692;BME280;61996;49.910;35.562;2023-04-01T05:59:06;98546.81;;;20.05;39.02
73692;BME280;61996;49.910;35.562;2023-04-01T06:02:09;98547.63;;;20.05;38.95
73692;BME280;61996;49.910;35.562;2023-04-01T06:05:17;98544.97;;;20.05;39.16
73692;BME280;61996;49.910;35.562;2023-04-01T06:08:20;98551.47;;;20.03;39.10
73692;BME280;61996;49.910;35.562;2023-04-01T06:11:26;98557.81;;;20.02;39.24
73692;BME280;61996;49.910;35.562;2023-04-01T06:14:34;98549.66;;;20.03;39.19
73692;BME280;61996;49.910;35.562;2023-04-01T06:17:41;98548.78;;;20.03;39.08
73692;BME280;61996;49.910;35.562;2023-04-01T06:20:48;98554.47;;;19.99;39.08
73692;BME280;61996;49.910;35.562;2023-04-01T06:23:57;98553.28;;;20.02;38.88
73692;BME280;61996;49.910;35.562;2023-04-01T06:27:08;98563.00;;;20.03;39.09
73692;BME280;61996;49.910;35.562;2023-04-01T06:33:39;98561.66;;;19.99;38.97
73692;BME280;61996;49.910;35.562;2023-04-01T06:36:59;98566.00;;;20.00;39.10
73692;BME280;61996;49.910;35.562;2023-04-01T06:40:16;98570.31;;;20.01;39.23
73692;BME280;61996;49.910;35.562;2023-04-01T06:43:25;98570.50;;;19.99;38.98
73692;BME280;61996;49.910;35.562;2023-04-01T06:46:36;98577.50;;;20.01;39.02
73692;BME280;61996;49.910;35.562;2023-04-01T06:49:44;98580.34;;;19.99;39.05
73692;BME280;61996;49.910;35.562;2023-04-01T06:52:54;98579.69;;;19.97;39.04
73692;BME280;61996;49.910;35.562;2023-04-01T06:56:02;98585.84;;;19.97;38.98
73692;BME280;61996;49.910;35.562;2023-04-01T06:59:11;98584.00;;;19.98;39.09
73692;BME280;61996;49.910;35.562;2023-04-01T07:02:22;98580.69;;;19.96;39.10
73692;BME280;61996;49.910;35.562;2023-04-01T07:05:27;98578.84;;;19.96;39.04
73692;BME280;61996;49.910;35.562;2023-04-01T07:08:34;98582.69;;;19.94;39.02
73692;BME280;61996;49.910;35.562;2023-04-01T07:11:40;98592.34;;;19.95;39.08
73692;BME280;61996;49.910;35.562;2023-04-01T07:14:45;98585.53;;;19.92;39.12
73692;BME280;61996;49.910;35.562;2023-04-01T07:17:52;98602.38;;;19.93;39.06
73692;BME280;61996;49.910;35.562;2023-04-01T07:20:56;98602.38;;;19.93;39.08
73692;BME280;61996;49.910;35.562;2023-04-01T07:24:04;98605.03;;;19.93;39.04
73692;BME280;61996;49.910;35.562;2023-04-01T07:27:09;98603.38;;;19.92;39.14
73692;BME280;61996;49.910;35.562;2023-04-01T07:30:18;98604.03;;;19.94;39.11
73692;BME280;61996;49.910;35.562;2023-04-01T07:33:21;98612.03;;;19.94;38.93
73692;BME280;61996;49.910;35.562;2023-04-01T07:36:36;98610.38;;;19.93;38.97
73692;BME280;61996;49.910;35.562;2023-04-01T07:39:43;98608.53;;;19.93;38.91
73692;BME280;61996;49.910;35.562;2023-04-01T07:42:57;98613.03;;;19.93;38.92
73692;BME280;61996;49.910;35.562;2023-04-01T07:46:09;98610.19;;;19.94;38.97
73692;BME280;61996;49.910;35.562;2023-04-01T07:49:17;98612.56;;;19.89;39.12
73692;BME280;61996;49.910;35.562;2023-04-01T07:52:25;98608.06;;;19.90;39.03
73692;BME280;61996;49.910;35.562;2023-04-01T07:55:32;98615.06;;;19.91;39.07
73692;BME280;61996;49.910;35.562;2023-04-01T07:58:43;98620.56;;;19.89;39.07
73692;BME280;61996;49.910;35.562;2023-04-01T08:01:58;98623.06;;;19.91;39.15
73692;BME280;61996;49.910;35.562;2023-04-01T08:05:04;98620.00;;;20.02;38.80
73692;BME280;61996;49.910;35.562;2023-04-01T08:08:17;98623.34;;;20.12;38.45
73692;BME280;61996;49.910;35.562;2023-04-01T08:11:25;98619.31;;;20.16;38.50
73692;BME280;61996;49.910;35.562;2023-04-01T08:14:33;98624.47;;;20.26;38.27
73692;BME280;61996;49.910;35.562;2023-04-01T08:17:42;98621.06;;;20.40;38.04
73692;BME280;61996;49.910;35.562;2023-04-01T08:20:50;98614.06;;;20.47;37.99
73692;BME280;61996;49.910;35.562;2023-04-01T08:23:55;98632.72;;;20.56;37.86
73692;BME280;61996;49.910;35.562;2023-04-01T08:26:59;98624.53;;;20.57;37.83
73692;BME280;61996;49.910;35.562;2023-04-01T08:30:06;98623.66;;;20.65;37.72
73692;BME280;61996;49.910;35.562;2023-04-01T08:33:19;98620.97;;;20.65;37.79
73692;BME280;61996;49.910;35.562;2023-04-01T08:36:24;98622.13;;;20.70;37.77
73692;BME280;61996;49.910;35.562;2023-04-01T08:39:31;98625.56;;;20.79;37.57
73692;BME280;61996;49.910;35.562;2023-04-01T08:42:47;98621.91;;;20.80;37.66
73692;BME280;61996;49.910;35.562;2023-04-01T08:49:26;98617.53;;;20.87;37.67
73692;BME280;61996;49.910;35.562;2023-04-01T08:52:35;98624.00;;;20.93;37.49
73692;BME280;61996;49.910;35.562;2023-04-01T08:55:40;98637.66;;;20.98;37.31
73692;BME280;61996;49.910;35.562;2023-04-01T08:59:04;98637.59;;;21.06;37.37
73692;BME280;61996;49.910;35.562;2023-04-01T09:05:52;98643.66;;;21.00;37.45
73692;BME280;61996;49.910;35.562;2023-04-01T09:09:10;98637.03;;;20.96;37.51
73692;BME280;61996;49.910;35.562;2023-04-01T09:12:40;98635.53;;;20.93;37.65
73692;BME280;61996;49.910;35.562;2023-04-01T09:15:50;98637.53;;;20.91;37.78
73692;BME280;61996;49.910;35.562;2023-04-01T09:22:26;98635.41;;;20.87;37.89
73692;BME280;61996;49.910;35.562;2023-04-01T09:25:54;98645.13;;;20.79;37.79
73692;BME280;61996;49.910;35.562;2023-04-01T09:29:02;98647.81;;;20.79;37.93
73692;BME280;61996;49.910;35.562;2023-04-01T09:32:18;98641.13;;;20.75;38.17
73692;BME280;61996;49.910;35.562;2023-04-01T09:35:35;98653.50;;;20.76;38.01
73692;BME280;61996;49.910;35.562;2023-04-01T09:38:48;98642.34;;;20.73;38.00
73692;BME280;61996;49.910;35.562;2023-04-01T09:41:55;98642.84;;;20.68;38.03
73692;BME280;61996;49.910;35.562;2023-04-01T09:45:05;98648.38;;;20.67;38.22
73692;BME280;61996;49.910;35.562;2023-04-01T09:48:14;98649.53;;;20.64;38.22
73692;BME280;61996;49.910;35.562;2023-04-01T09:51:23;98640.22;;;20.60;38.17
73692;BME280;61996;49.910;35.562;2023-04-01T09:54:36;98650.22;;;20.58;38.32
73692;BME280;61996;49.910;35.562;2023-04-01T10:01:34;98639.91;;;20.55;38.42
73692;BME280;61996;49.910;35.562;2023-04-01T10:04:53;98648.56;;;20.57;38.39
73692;BME280;61996;49.910;35.562;2023-04-01T10:11:30;98660.25;;;20.56;38.47
73692;BME280;61996;49.910;35.562;2023-04-01T10:14:46;98659.59;;;20.54;38.30
73692;BME280;61996;49.910;35.562;2023-04-01T10:21:29;98655.28;;;20.53;38.50
73692;BME280;61996;49.910;35.562;2023-04-01T10:24:47;98653.63;;;20.52;38.42
73692;BME280;61996;49.910;35.562;2023-04-01T10:31:34;98661.13;;;20.48;38.50
73692;BME280;61996;49.910;35.562;2023-04-01T10:41:27;98670.16;;;20.47;38.57
73692;BME280;61996;49.910;35.562;2023-04-01T10:44:49;98672.16;;;20.45;38.47
73692;BME280;61996;49.910;35.562;2023-04-01T10:48:06;98661.59;;;20.44;38.72
73692;BME280;61996;49.910;35.562;2023-04-01T10:54:45;98662.78;;;20.49;38.52
73692;BME280;61996;49.910;35.562;2023-04-01T10:58:05;98655.81;;;20.32;38.94
73692;BME280;61996;49.910;35.562;2023-04-01T11:01:22;98646.72;;;20.10;39.25
73692;BME280;61996;49.910;35.562;2023-04-01T11:07:57;98657.38;;;20.02;39.47
73692;BME280;61996;49.910;35.562;2023-04-01T11:17:55;98654.16;;;20.23;39.13
73692;BME280;61996;49.910;35.562;2023-04-01T11:24:34;98647.81;;;20.32;39.62
73692;BME280;61996;49.910;35.562;2023-04-01T11:27:45;98647.59;;;20.42;39.38
73692;BME280;61996;49.910;35.562;2023-04-01T11:30:53;98644.78;;;20.51;39.44
73692;BME280;61996;49.910;35.562;2023-04-01T11:34:02;98655.56;;;20.58;39.53
73692;BME280;61996;49.910;35.562;2023-04-01T11:37:14;98651.88;;;20.67;39.08
73692;BME280;61996;49.910;35.562;2023-04-01T11:40:23;98648.78;;;20.78;38.88
73692;BME280;61996;49.910;35.562;2023-04-01T11:43:34;98643.91;;;20.90;38.13
73692;BME280;61996;49.910;35.562;2023-04-01T11:46:44;98657.03;;;21.00;38.56
73692;BME280;61996;49.910;35.562;2023-04-01T11:49:59;98657.22;;;20.98;38.66
73692;BME280;61996;49.910;35.562;2023-04-01T11:53:13;98658.66;;;21.09;38.37
73692;BME280;61996;49.910;35.562;2023-04-01T11:56:25;98653.97;;;21.11;38.08
73692;BME280;61996;49.910;35.562;2023-04-01T11:59:46;98657.13;;;21.15;38.25
73692;BME280;61996;49.910;35.562;2023-04-01T12:03:00;98654.41;;;21.23;38.25
73692;BME280;61996;49.910;35.562;2023-04-01T12:06:10;98656.88;;;21.24;38.15
73692;BME280;61996;49.910;35.562;2023-04-01T12:09:19;98660.19;;;21.26;38.21
73692;BME280;61996;49.910;35.562;2023-04-01T12:12:29;98653.34;;;21.32;37.88
73692;BME280;61996;49.910;35.562;2023-04-01T12:15:36;98661.56;;;21.30;38.10
73692;BME280;61996;49.910;35.562;2023-04-01T12:18:50;98664.34;;;21.37;37.92
73692;BME280;61996;49.910;35.562;2023-04-01T12:21:59;98663.72;;;21.35;37.90
73692;BME280;61996;49.910;35.562;2023-04-01T12:25:11;98658.00;;;21.38;37.95
73692;BME280;61996;49.910;35.562;2023-04-01T12:28:24;98664.28;;;21.45;37.78
73692;BME280;61996;49.910;35.562;2023-04-01T12:31:31;98661.78;;;21.44;37.99
73692;BME280;61996;49.910;35.562;2023-04-01T12:34:48;98658.56;;;21.48;37.78
73692;BME280;61996;49.910;35.562;2023-04-01T12:37:57;98655.84;;;21.56;37.60
73692;BME280;61996;49.910;35.562;2023-04-01T12:41:08;98654.34;;;21.54;37.90
73692;BME280;61996;49.910;35.562;2023-04-01T12:47:40;98661.00;;;21.58;37.66
73692;BME280;61996;49.910;35.562;2023-04-01T12:54:14;98662.84;;;21.57;37.71
73692;BME280;61996;49.910;35.562;2023-04-01T12:57:25;98670.69;;;21.59;37.75
73692;BME280;61996;49.910;35.562;2023-04-01T13:00:34;98677.41;;;21.55;37.72
73692;BME280;61996;49.910;35.562;2023-04-01T13:07:19;98676.75;;;21.53;38.08
73692;BME280;61996;49.910;35.562;2023-04-01T13:10:29;98675.16;;;21.44;38.06
73692;BME280;61996;49.910;35.562;2023-04-01T13:13:38;98679.50;;;21.45;37.87
73692;BME280;61996;49.910;35.562;2023-04-01T13:16:45;98684.84;;;21.45;38.05
73692;BME280;61996;49.910;35.562;2023-04-01T13:19:51;98678.19;;;21.41;38.09
73692;BME280;61996;49.910;35.562;2023-04-01T13:23:10;98678.75;;;21.36;38.24
73692;BME280;61996;49.910;35.562;2023-04-01T13:26:18;98679.25;;;21.31;38.25
73692;BME280;61996;49.910;35.562;2023-04-01T13:29:27;98685.63;;;21.30;38.47
73692;BME280;61996;49.910;35.562;2023-04-01T13:32:35;98688.59;;;21.27;38.40
73692;BME280;61996;49.910;35.562;2023-04-01T13:35:46;98682.59;;;21.25;38.54
73692;BME280;61996;49.910;35.562;2023-04-01T13:39:04;98683.13;;;21.21;38.54
73692;BME280;61996;49.910;35.562;2023-04-01T13:42:16;98676.13;;;21.20;38.35
73692;BME280;61996;49.910;35.562;2023-04-01T13:45:22;98681.00;;;21.16;38.43
73692;BME280;61996;49.910;35.562;2023-04-01T13:48:33;98674.16;;;21.14;38.48
73692;BME280;61996;49.910;35.562;2023-04-01T13:55:05;98677.00;;;21.12;38.67
73692;BME280;61996;49.910;35.562;2023-04-01T13:58:23;98681.72;;;21.10;38.41
73692;BME280;61996;49.910;35.562;2023-04-01T14:01:35;98682.34;;;21.12;38.45
73692;BME280;61996;49.910;35.562;2023-04-01T14:04:45;98692.41;;;21.10;38.55
73692;BME280;61996;49.910;35.562;2023-04-01T14:07:56;98688.41;;;21.06;38.65
73692;BME280;61996;49.910;35.562;2023-04-01T14:11:10;98685.03;;;21.12;38.88
73692;BME280;61996;49.910;35.562;2023-04-01T14:14:19;98684.75;;;21.07;38.64
73692;BME280;61996;49.910;35.562;2023-04-01T14:20:48;98699.28;;;21.04;38.59
73692;BME280;61996;49.910;35.562;2023-04-01T14:23:59;98696.91;;;21.10;38.54
73692;BME280;61996;49.910;35.562;2023-04-01T14:27:18;98704.16;;;21.01;38.67
73692;BME280;61996;49.910;35.562;2023-04-01T14:30:37;98696.16;;;20.93;38.50
73692;BME280;61996;49.910;35.562;2023-04-01T14:33:46;98689.97;;;21.00;39.00
73692;BME280;61996;49.910;35.562;2023-04-01T14:37:01;98686.44;;;21.00;39.02
73692;BME280;61996;49.910;35.562;2023-04-01T14:40:22;98686.78;;;20.97;39.15
73692;BME280;61996;49.910;35.562;2023-04-01T14:43:35;98687.44;;;20.99;39.11
73692;BME280;61996;49.910;35.562;2023-04-01T14:50:08;98690.47;;;20.96;39.04
73692;BME280;61996;49.910;35.562;2023-04-01T14:53:16;98691.31;;;20.96;39.02
73692;BME280;61996;49.910;35.562;2023-04-01T14:56:37;98698.50;;;20.96;38.93
73692;BME280;61996;49.910;35.562;2023-04-01T14:59:45;98700.66;;;20.92;39.05
73692;BME280;61996;49.910;35.562;2023-04-01T15:02:51;98699.84;;;20.92;39.03
73692;BME280;61996;49.910;35.562;2023-04-01T15:06:11;98701.84;;;20.90;38.99
73692;BME280;61996;49.910;35.562;2023-04-01T15:09:18;98692.50;;;20.86;39.12
73692;BME280;61996;49.910;35.562;2023-04-01T15:12:30;98700.38;;;20.87;39.11
73692;BME280;61996;49.910;35.562;2023-04-01T15:15:54;98700.72;;;20.84;39.18
73692;BME280;61996;49.910;35.562;2023-04-01T15:19:09;98706.59;;;20.79;39.17
73692;BME280;61996;49.910;35.562;2023-04-01T15:22:22;98705.72;;;20.79;39.30
73692;BME280;61996;49.910;35.562;2023-04-01T15:25:35;98709.41;;;20.78;39.12
73692;BME280;61996;49.910;35.562;2023-04-01T15:28:43;98702.59;;;20.75;39.20
73692;BME280;61996;49.910;35.562;2023-04-01T15:31:53;98709.28;;;20.79;39.08
73692;BME280;61996;49.910;35.562;2023-04-01T15:35:01;98705.63;;;20.72;39.38
73692;BME280;61996;49.910;35.562;2023-04-01T15:38:17;98701.63;;;20.68;39.55
73692;BME280;61996;49.910;35.562;2023-04-01T15:41:33;98711.66;;;20.66;39.67
73692;BME280;61996;49.910;35.562;2023-04-01T15:45:00;98712.63;;;20.65;39.57
73692;BME280;61996;49.910;35.562;2023-04-01T15:48:13;98714.00;;;20.61;39.78
73692;BME280;61996;49.910;35.562;2023-04-01T15:51:31;98712.34;;;20.60;39.57
73692;BME280;61996;49.910;35.562;2023-04-01T15:58:11;98713.84;;;20.55;39.68
73692;BME280;61996;49.910;35.562;2023-04-01T16:01:24;98715.03;;;20.52;39.81
73692;BME280;61996;49.910;35.562;2023-04-01T16:04:46;98723.06;;;20.52;39.66
73692;BME280;61996;49.910;35.562;2023-04-01T16:07:54;98713.22;;;20.52;39.61
73692;BME280;61996;49.910;35.562;2023-04-01T16:11:07;98711.53;;;20.51;39.51
73692;BME280;61996;49.910;35.562;2023-04-01T16:14:16;98708.38;;;20.48;39.60
73692;BME280;61996;49.910;35.562;2023-04-01T16:17:26;98712.88;;;20.47;39.53
73692;BME280;61996;49.910;35.562;2023-04-01T16:20:40;98724.56;;;20.46;39.40
73692;BME280;61996;49.910;35.562;2023-04-01T16:23:47;98726.41;;;20.46;39.44
73692;BME280;61996;49.910;35.562;2023-04-01T16:26:52;98723.03;;;20.44;39.52
73692;BME280;61996;49.910;35.562;2023-04-01T16:29:58;98727.72;;;20.34;39.77
73692;BME280;61996;49.910;35.562;2023-04-01T16:33:03;98729.06;;;20.38;39.66
73692;BME280;61996;49.910;35.562;2023-04-01T16:36:12;98731.06;;;20.36;40.04
73692;BME280;61996;49.910;35.562;2023-04-01T16:39:26;98734.75;;;20.35;40.17
73692;BME280;61996;49.910;35.562;2023-04-01T16:42:34;98735.56;;;20.35;40.40
73692;BME280;61996;49.910;35.562;2023-04-01T16:45:45;98736.75;;;20.33;40.20
73692;BME280;61996;49.910;35.562;2023-04-01T16:49:00;98743.25;;;20.30;40.17
73692;BME280;61996;49.910;35.562;2023-04-01T16:52:16;98745.44;;;20.26;40.42
73692;BME280;61996;49.910;35.562;2023-04-01T16:55:20;98743.41;;;20.29;40.44
73692;BME280;61996;49.910;35.562;2023-04-01T16:58:26;98746.09;;;20.29;40.40
73692;BME280;61996;49.910;35.562;2023-04-01T17:01:31;98756.78;;;20.29;40.38
73692;BME280;61996;49.910;35.562;2023-04-01T17:04:42;98746.78;;;20.31;40.44
73692;BME280;61996;49.910;35.562;2023-04-01T17:07:49;98749.09;;;20.34;40.41
73692;BME280;61996;49.910;35.562;2023-04-01T17:10:59;98752.78;;;20.33;40.23
73692;BME280;61996;49.910;35.562;2023-04-01T17:14:09;98746.78;;;20.31;40.37
73692;BME280;61996;49.910;35.562;2023-04-01T17:17:31;98745.78;;;20.32;40.29
73692;BME280;61996;49.910;35.562;2023-04-01T17:20:39;98760.97;;;20.31;40.28
73692;BME280;61996;49.910;35.562;2023-04-01T17:23:45;98755.75;;;20.30;40.29
73692;BME280;61996;49.910;35.562;2023-04-01T17:26:52;98759.63;;;20.27;40.05
73692;BME280;61996;49.910;35.562;2023-04-01T17:30:17;98750.28;;;20.31;40.13
73692;BME280;61996;49.910;35.562;2023-04-01T17:33:28;98750.09;;;20.41;39.85
73692;BME280;61996;49.910;35.562;2023-04-01T17:36:36;98750.44;;;20.38;39.78
73692;BME280;61996;49.910;35.562;2023-04-01T17:39:46;98744.75;;;20.41;39.87
73692;BME280;61996;49.910;35.562;2023-04-01T17:42:52;98748.25;;;20.41;39.97